createdAt,value
2018-07-19T00:01:33.438Z,15.00
2018-07-19T00:04:08.929Z,14.80
2018-07-19T00:06:44.730Z,14.90
2018-07-19T00:09:20.030Z,14.90
2018-07-19T00:11:55.529Z,14.90
2018-07-19T00:14:30.953Z,14.80
2018-07-19T00:17:06.933Z,14.80
2018-07-19T00:19:42.877Z,14.80
2018-07-19T00:22:18.422Z,14.70
2018-07-19T00:24:53.917Z,14.70
2018-07-19T00:27:29.521Z,14.70
2018-07-19T00:30:05.441Z,14.70
2018-07-19T00:32:40.923Z,14.70
2018-07-19T00:35:16.404Z,14.70
2018-07-19T00:37:52.009Z,14.60
2018-07-19T00:40:27.529Z,14.60
2018-07-19T00:43:03.015Z,14.60
2018-07-19T00:45:38.453Z,14.60
2018-07-19T00:48:13.889Z,14.60
2018-07-19T00:50:49.266Z,14.60
2018-07-19T00:53:25.401Z,14.60
2018-07-19T00:56:00.802Z,14.50
2018-07-19T00:58:36.488Z,14.50
2018-07-19T01:01:11.920Z,14.40
2018-07-19T01:03:47.357Z,14.50
2018-07-19T01:06:22.685Z,14.40
2018-07-19T01:08:58.173Z,14.40
2018-07-19T01:11:33.566Z,14.40
2018-07-19T01:14:09.337Z,14.20
2018-07-19T01:16:45.022Z,14.30
2018-07-19T01:19:20.474Z,14.30
2018-07-19T01:24:31.357Z,14.30
2018-07-19T01:27:06.902Z,14.30
2018-07-19T01:29:42.466Z,14.30
2018-07-19T01:32:17.969Z,14.20
2018-07-19T01:34:53.448Z,14.20
2018-07-19T01:37:28.928Z,14.20
2018-07-19T01:40:04.543Z,14.20
2018-07-19T01:42:42.326Z,14.20
2018-07-19T01:45:17.997Z,14.00
2018-07-19T01:47:53.466Z,14.10
2018-07-19T01:50:28.991Z,14.10
2018-07-19T01:53:04.357Z,14.00
2018-07-19T01:55:40.095Z,14.10
2018-07-19T01:58:15.598Z,14.00
2018-07-19T02:00:51.154Z,14.00
2018-07-19T02:03:26.666Z,14.00
2018-07-19T02:06:02.374Z,14.00
2018-07-19T02:08:37.718Z,13.90
2018-07-19T02:11:13.470Z,14.00
2018-07-19T02:13:49.006Z,13.90
2018-07-19T02:16:24.979Z,13.90
2018-07-19T02:19:00.440Z,13.90
2018-07-19T02:21:36.169Z,13.90
2018-07-19T02:24:12.182Z,13.90
2018-07-19T02:26:48.166Z,13.90
2018-07-19T02:29:23.818Z,13.90
2018-07-19T02:31:59.591Z,13.90
2018-07-19T02:34:35.066Z,13.90
2018-07-19T02:37:10.481Z,13.80
2018-07-19T02:39:45.666Z,13.80
2018-07-19T02:42:21.271Z,13.80
2018-07-19T02:44:56.704Z,13.80
2018-07-19T02:47:32.466Z,13.90
2018-07-19T02:50:07.930Z,13.90
2018-07-19T02:52:43.467Z,13.90
2018-07-19T02:55:18.923Z,13.90
2018-07-19T02:57:54.558Z,13.80
2018-07-19T03:00:30.022Z,13.80
2018-07-19T03:03:05.565Z,13.70
2018-07-19T03:05:40.908Z,13.80
2018-07-19T03:08:16.334Z,13.80
2018-07-19T03:10:51.842Z,13.80
2018-07-19T03:13:27.534Z,13.70
2018-07-19T03:16:03.158Z,13.70
2018-07-19T03:18:39.063Z,13.80
2018-07-19T03:21:14.691Z,13.70
2018-07-19T03:23:50.244Z,13.60
2018-07-19T03:29:01.123Z,13.70
2018-07-19T03:31:36.607Z,13.70
2018-07-19T03:34:12.425Z,13.70
2018-07-19T03:36:47.981Z,13.70
2018-07-19T03:39:23.623Z,13.70
2018-07-19T03:41:59.103Z,13.80
2018-07-19T03:44:34.818Z,13.80
2018-07-19T03:49:45.618Z,13.80
2018-07-19T03:52:21.426Z,13.80
2018-07-19T03:54:57.016Z,13.70
2018-07-19T03:57:32.642Z,13.80
2018-07-19T04:00:08.338Z,13.80
2018-07-19T04:02:43.781Z,13.80
2018-07-19T04:05:19.429Z,13.80
2018-07-19T04:07:54.740Z,13.80
2018-07-19T04:10:30.421Z,13.80
2018-07-19T04:15:41.423Z,13.90
2018-07-19T04:18:17.147Z,13.90
2018-07-19T04:20:52.816Z,14.00
2018-07-19T04:23:28.205Z,14.00
2018-07-19T04:26:03.891Z,14.10
2018-07-19T04:28:39.377Z,14.10
2018-07-19T04:31:15.086Z,14.10
2018-07-19T04:33:50.574Z,14.30
2018-07-19T04:36:26.394Z,14.40
2018-07-19T04:39:01.958Z,14.50
2018-07-19T04:41:37.689Z,14.50
2018-07-19T04:44:13.370Z,14.60
2018-07-19T04:49:29.459Z,14.70
2018-07-19T04:54:40.189Z,14.90
2018-07-19T04:57:15.677Z,15.00
2018-07-19T04:59:51.102Z,15.00
2018-07-19T05:05:01.970Z,15.40
2018-07-19T05:07:37.666Z,17.90
2018-07-19T05:10:13.134Z,20.60
2018-07-19T05:12:48.726Z,22.40
2018-07-19T05:17:59.755Z,24.90
2018-07-19T05:20:35.074Z,25.40
2018-07-19T05:23:10.652Z,25.80
2018-07-19T05:25:46.111Z,26.20
2018-07-19T05:30:57.574Z,26.60
2018-07-19T05:33:33.346Z,26.10
2018-07-19T05:36:09.202Z,26.40
2018-07-19T05:38:44.766Z,26.60
2018-07-19T05:41:20.266Z,27.00
2018-07-19T05:43:56.047Z,27.40
2018-07-19T05:46:31.540Z,26.60
2018-07-19T05:49:08.270Z,26.50
2018-07-19T05:56:54.316Z,26.60
2018-07-19T05:59:30.060Z,26.50
2018-07-19T06:02:05.554Z,25.90
2018-07-19T06:04:41.252Z,25.90
2018-07-19T06:07:16.694Z,26.60
2018-07-19T06:09:52.155Z,27.00
2018-07-19T06:12:27.728Z,27.10
2018-07-19T06:15:03.467Z,26.60
2018-07-19T06:17:39.085Z,27.20
2018-07-19T06:20:14.529Z,26.80
2018-07-19T06:22:49.838Z,27.20
2018-07-19T06:25:25.425Z,27.40
2018-07-19T06:28:00.789Z,27.20
2018-07-19T06:30:36.632Z,27.30
2018-07-19T06:33:12.290Z,26.70
2018-07-19T06:35:48.225Z,26.20
2018-07-19T06:40:59.095Z,25.80
2018-07-19T06:43:34.476Z,25.50
2018-07-19T06:46:10.174Z,25.80
2018-07-19T06:48:45.534Z,26.30
2018-07-19T06:51:21.206Z,25.80
2018-07-19T06:53:56.854Z,26.00
2018-07-19T06:56:32.294Z,26.40
2018-07-19T06:59:07.814Z,25.80
2018-07-19T07:01:43.298Z,26.60
2018-07-19T07:04:18.814Z,27.00
2018-07-19T07:06:54.392Z,27.40
2018-07-19T07:09:29.910Z,27.40
2018-07-19T07:12:05.385Z,27.90
2018-07-19T07:14:40.770Z,28.10
2018-07-19T07:17:16.580Z,27.80
2018-07-19T07:19:51.906Z,27.20
2018-07-19T07:22:27.384Z,27.90
2018-07-19T07:27:38.271Z,27.70
2018-07-19T07:30:13.734Z,28.00
2018-07-19T07:32:56.009Z,28.10
2018-07-19T07:35:31.394Z,28.00
2018-07-19T07:38:07.007Z,28.00
2018-07-19T07:40:42.506Z,28.50
2018-07-19T07:43:18.110Z,28.40
2018-07-19T07:45:53.653Z,28.30
2018-07-19T07:48:29.297Z,28.80
2018-07-19T07:51:04.714Z,29.00
2018-07-19T07:53:40.314Z,28.60
2018-07-19T07:56:15.645Z,27.30
2018-07-19T07:58:51.304Z,27.30
2018-07-19T08:01:26.597Z,27.10
2018-07-19T08:04:02.083Z,27.50
2018-07-19T08:06:37.513Z,27.50
2018-07-19T08:09:12.959Z,27.40
2018-07-19T08:11:48.457Z,27.40
2018-07-19T08:14:24.059Z,26.30
2018-07-19T08:17:00.549Z,24.70
2018-07-19T08:19:36.085Z,24.10
2018-07-19T08:24:47.170Z,23.70
2018-07-19T08:27:22.531Z,23.70
2018-07-19T08:29:58.226Z,23.60
2018-07-19T08:32:33.711Z,23.70
2018-07-19T08:35:09.768Z,23.40
2018-07-19T08:37:45.166Z,23.40
2018-07-19T08:40:20.757Z,23.30
2018-07-19T08:42:56.214Z,23.20
2018-07-19T08:45:31.651Z,23.30
2018-07-19T08:48:07.166Z,23.40
2018-07-19T08:50:49.430Z,23.40
2018-07-19T08:53:24.794Z,23.50
2018-07-19T08:58:34.579Z,23.50
2018-07-19T09:01:10.071Z,23.60
2018-07-19T09:03:45.523Z,23.40
2018-07-19T09:06:21.054Z,23.40
2018-07-19T09:08:56.522Z,23.60
2018-07-19T09:11:32.141Z,23.50
2018-07-19T09:14:07.585Z,23.40
2018-07-19T09:16:43.398Z,23.60
2018-07-19T09:19:18.789Z,23.50
2018-07-19T09:21:54.429Z,23.50
2018-07-19T09:24:29.888Z,23.40
2018-07-19T09:29:40.679Z,24.00
2018-07-19T09:32:16.214Z,24.10
2018-07-19T09:34:51.718Z,24.10
2018-07-19T09:37:27.422Z,23.80
2018-07-19T09:40:02.643Z,23.80
2018-07-19T09:42:38.506Z,24.00
2018-07-19T09:45:13.970Z,23.80
2018-07-19T09:47:49.605Z,24.10
2018-07-19T09:50:27.770Z,24.30
2018-07-19T09:55:38.443Z,24.40
2018-07-19T09:58:13.830Z,24.80
2018-07-19T10:00:54.664Z,24.70
2018-07-19T10:03:30.258Z,24.70
2018-07-19T10:06:05.830Z,24.70
2018-07-19T10:08:41.423Z,24.80
2018-07-19T10:11:16.984Z,24.70
2018-07-19T10:13:52.659Z,24.60
2018-07-19T10:16:29.249Z,24.70
2018-07-19T10:19:05.903Z,24.90
2018-07-19T10:21:41.254Z,24.90
2018-07-19T10:24:16.827Z,24.90
2018-07-19T10:26:52.424Z,25.30
2018-07-19T10:29:28.195Z,25.30
2018-07-19T10:32:03.647Z,25.40
2018-07-19T10:34:39.182Z,25.40
2018-07-19T10:37:14.634Z,25.20
2018-07-19T10:39:50.086Z,24.90
2018-07-19T10:42:26.578Z,25.00
2018-07-19T10:45:02.097Z,25.60
2018-07-19T10:47:37.760Z,26.10
2018-07-19T10:50:19.847Z,25.90
2018-07-19T10:52:55.356Z,26.10
2018-07-19T10:55:30.938Z,26.40
2018-07-19T10:58:06.299Z,26.50
2018-07-19T11:00:41.745Z,26.60
2018-07-19T11:03:17.220Z,26.20
2018-07-19T11:05:52.827Z,26.40
2018-07-19T11:08:28.387Z,26.00
2018-07-19T11:11:04.139Z,25.90
2018-07-19T11:16:15.054Z,25.50
2018-07-19T11:18:51.073Z,25.60
2018-07-19T11:21:26.648Z,25.80
2018-07-19T11:24:02.209Z,26.00
2018-07-19T11:26:38.028Z,26.50
2018-07-19T11:29:13.492Z,25.90
2018-07-19T11:31:49.015Z,25.70
2018-07-19T11:34:24.211Z,25.50
2018-07-19T11:36:59.803Z,25.40
2018-07-19T11:39:35.143Z,25.80
2018-07-19T11:42:11.206Z,26.10
2018-07-19T11:44:46.545Z,26.20
2018-07-19T11:47:22.200Z,26.00
2018-07-19T11:49:57.748Z,25.90
2018-07-19T11:55:09.488Z,26.20
2018-07-19T11:57:45.130Z,26.50
2018-07-19T12:00:20.656Z,26.60
2018-07-19T12:02:56.029Z,26.20
2018-07-19T12:05:31.387Z,26.50
2018-07-19T12:08:07.102Z,26.00
2018-07-19T12:13:17.992Z,26.50
2018-07-19T12:15:53.471Z,26.70
2018-07-19T12:18:29.182Z,26.40
2018-07-19T12:21:04.585Z,26.00
2018-07-19T12:23:40.378Z,26.00
2018-07-19T12:26:15.807Z,25.90
2018-07-19T12:28:51.574Z,26.00
2018-07-19T12:31:27.070Z,26.20
2018-07-19T12:34:02.775Z,26.50
2018-07-19T12:36:38.206Z,26.60
2018-07-19T12:39:13.980Z,26.70
2018-07-19T12:41:55.758Z,26.10
2018-07-19T12:44:31.390Z,26.10
2018-07-19T12:47:06.842Z,26.10
2018-07-19T12:49:42.426Z,26.00
2018-07-19T12:54:53.433Z,25.90
2018-07-19T12:57:28.646Z,25.80
2018-07-19T13:00:04.473Z,26.10
2018-07-19T13:02:39.908Z,26.30
2018-07-19T13:05:15.490Z,25.90
2018-07-19T13:07:51.054Z,26.00
2018-07-19T13:10:26.687Z,26.10
2018-07-19T13:13:03.650Z,26.00
2018-07-19T13:15:41.058Z,26.00
2018-07-19T13:18:16.619Z,26.00
2018-07-19T13:20:52.254Z,25.90
2018-07-19T13:26:03.352Z,25.90
2018-07-19T13:28:38.806Z,26.00
2018-07-19T13:31:14.446Z,26.00
2018-07-19T13:33:49.869Z,26.00
2018-07-19T13:36:25.438Z,26.10
2018-07-19T13:39:00.824Z,26.20
2018-07-19T13:41:36.534Z,26.10
2018-07-19T13:44:11.918Z,26.10
2018-07-19T13:46:47.523Z,26.00
2018-07-19T13:49:23.010Z,26.10
2018-07-19T13:51:58.618Z,26.00
2018-07-19T13:54:48.790Z,26.20
2018-07-19T13:59:59.622Z,26.50
2018-07-19T14:02:35.034Z,26.30
2018-07-19T14:05:10.362Z,26.20
2018-07-19T14:07:45.830Z,26.20
2018-07-19T14:10:21.274Z,26.30
2018-07-19T14:12:56.829Z,26.20
2018-07-19T14:15:32.394Z,26.20
2018-07-19T14:18:08.440Z,26.20
2018-07-19T14:20:43.917Z,26.00
2018-07-19T14:23:20.131Z,25.60
2018-07-19T14:25:55.543Z,25.70
2018-07-19T14:28:31.137Z,25.60
2018-07-19T14:31:06.903Z,25.30
2018-07-19T14:33:42.616Z,25.40
2018-07-19T14:36:18.207Z,25.60
2018-07-19T14:38:53.844Z,25.70
2018-07-19T14:41:29.331Z,25.80
2018-07-19T14:44:05.396Z,25.60
2018-07-19T14:46:40.723Z,25.70
2018-07-19T14:49:16.342Z,25.50
2018-07-19T14:51:51.646Z,25.60
2018-07-19T14:54:27.330Z,25.60
2018-07-19T14:57:02.827Z,25.50
2018-07-19T14:59:38.478Z,25.50
2018-07-19T15:02:13.702Z,25.40
2018-07-19T15:04:49.515Z,25.50
2018-07-19T15:07:25.024Z,25.50
2018-07-19T15:10:00.623Z,25.40
2018-07-19T15:12:35.860Z,25.40
2018-07-19T15:15:11.295Z,25.60
2018-07-19T15:17:47.079Z,25.60
2018-07-19T15:22:57.810Z,25.60
2018-07-19T15:25:33.293Z,25.50
2018-07-19T15:28:08.614Z,25.20
2018-07-19T15:30:44.103Z,25.20
2018-07-19T15:33:19.452Z,25.10
2018-07-19T15:35:54.858Z,25.10
2018-07-19T15:38:30.225Z,25.20
2018-07-19T15:41:05.906Z,25.10
2018-07-19T15:43:41.238Z,25.10
2018-07-19T15:46:16.737Z,24.90
2018-07-19T15:48:52.246Z,24.80
2018-07-19T15:51:27.734Z,24.80
2018-07-19T15:54:02.973Z,24.70
2018-07-19T15:56:38.627Z,24.70
2018-07-19T15:59:14.152Z,24.60
2018-07-19T16:01:49.823Z,24.70
2018-07-19T16:04:25.173Z,24.70
2018-07-19T16:07:00.611Z,24.60
2018-07-19T16:09:36.126Z,24.60
2018-07-19T16:12:11.807Z,24.50
2018-07-19T16:14:47.138Z,24.50
2018-07-19T16:17:23.002Z,24.50
2018-07-19T16:19:58.198Z,24.30
2018-07-19T16:22:33.894Z,24.30
2018-07-19T16:25:09.245Z,24.30
2018-07-19T16:27:44.683Z,24.10
2018-07-19T16:30:20.106Z,24.00
2018-07-19T16:32:55.743Z,24.00
2018-07-19T16:35:31.018Z,23.90
2018-07-19T16:43:17.264Z,23.70
2018-07-19T16:45:52.718Z,23.70
2018-07-19T16:48:28.267Z,23.70
2018-07-19T16:51:04.088Z,23.70
2018-07-19T16:53:39.834Z,23.70
2018-07-19T16:56:15.370Z,23.60
2018-07-19T16:58:51.165Z,23.60
2018-07-19T17:01:26.498Z,23.50
2018-07-19T17:04:02.142Z,23.40
2018-07-19T17:06:37.618Z,23.30
2018-07-19T17:09:13.066Z,23.30
2018-07-19T17:11:48.378Z,23.30
2018-07-19T17:14:24.339Z,23.20
2018-07-19T17:16:59.977Z,23.20
2018-07-19T17:19:35.634Z,23.10
2018-07-19T17:22:11.104Z,23.00
2018-07-19T17:24:46.626Z,23.00
2018-07-19T17:27:21.952Z,22.90
2018-07-19T17:29:57.566Z,22.90
2018-07-19T17:32:32.847Z,22.90
2018-07-19T17:35:09.023Z,22.90
2018-07-19T17:37:44.390Z,22.90
2018-07-19T17:42:55.574Z,22.80
2018-07-19T17:45:31.209Z,22.80
2018-07-19T17:48:07.486Z,22.80
2018-07-19T17:50:43.156Z,22.70
2018-07-19T17:53:18.487Z,22.60
2018-07-19T17:55:54.010Z,22.50
2018-07-19T17:58:29.518Z,22.50
2018-07-19T18:01:05.405Z,22.40
2018-07-19T18:03:40.894Z,22.30
2018-07-19T18:06:23.078Z,22.30
2018-07-19T18:08:58.523Z,22.20
2018-07-19T18:11:34.189Z,22.20
2018-07-19T18:14:09.842Z,22.10
2018-07-19T18:19:20.863Z,22.00
2018-07-19T18:24:31.793Z,21.90
2018-07-19T18:27:07.646Z,21.70
2018-07-19T18:29:43.416Z,21.70
2018-07-19T18:32:19.265Z,21.60
2018-07-19T18:34:55.198Z,21.50
2018-07-19T18:37:30.872Z,21.40
2018-07-19T18:40:06.419Z,21.30
2018-07-19T18:42:42.450Z,21.20
2018-07-19T18:45:17.920Z,21.20
2018-07-19T18:53:03.851Z,20.90
2018-07-19T18:55:39.397Z,20.80
2018-07-19T18:58:15.066Z,20.70
2018-07-19T19:00:50.379Z,20.60
2018-07-19T19:03:35.496Z,20.40
2018-07-19T19:06:10.758Z,20.40
2018-07-19T19:08:46.510Z,20.30
2018-07-19T19:11:22.001Z,20.20
2018-07-19T19:13:57.573Z,20.20
2018-07-19T19:16:33.030Z,20.10
2018-07-19T19:19:08.770Z,20.00
2018-07-19T19:21:44.596Z,19.90
2018-07-19T19:24:20.246Z,19.90
2018-07-19T19:26:55.734Z,19.90
2018-07-19T19:29:31.252Z,19.80
2018-07-19T19:32:06.787Z,19.70
2018-07-19T19:37:17.567Z,19.60
2018-07-19T19:39:53.236Z,19.50
2018-07-19T19:42:28.659Z,19.40
2018-07-19T19:45:04.366Z,19.40
2018-07-19T19:47:39.927Z,19.30
2018-07-19T19:50:15.735Z,19.20
2018-07-19T19:52:51.114Z,19.20
2018-07-19T19:55:26.822Z,19.10
2018-07-19T19:58:02.135Z,19.10
2018-07-19T20:00:37.623Z,19.00
2018-07-19T20:03:13.118Z,18.90
2018-07-19T20:05:48.715Z,18.80
2018-07-19T20:08:24.081Z,18.80
2018-07-19T20:10:59.707Z,18.80
2018-07-19T20:13:35.810Z,18.70
2018-07-19T20:16:11.518Z,18.70
2018-07-19T20:18:47.170Z,18.80
2018-07-19T20:21:22.662Z,18.70
2018-07-19T20:23:57.889Z,18.60
2018-07-19T20:26:33.526Z,18.60
2018-07-19T20:29:08.889Z,18.50
2018-07-19T20:31:44.315Z,18.40
2018-07-19T20:34:20.563Z,18.40
2018-07-19T20:36:55.575Z,18.40
2018-07-19T20:39:31.082Z,18.40
2018-07-19T20:42:06.810Z,18.40
2018-07-19T20:44:42.174Z,18.30
2018-07-19T20:47:17.891Z,18.30
2018-07-19T20:49:53.248Z,18.50
2018-07-19T20:52:28.874Z,18.30
2018-07-19T20:55:04.371Z,18.30
2018-07-19T20:57:40.066Z,18.20
2018-07-19T21:00:15.291Z,18.10
2018-07-19T21:02:51.159Z,18.20
2018-07-19T21:05:26.520Z,18.00
2018-07-19T21:10:37.374Z,18.00
2018-07-19T21:15:48.702Z,18.00
2018-07-19T21:18:24.449Z,18.00
2018-07-19T21:20:59.833Z,17.90
2018-07-19T21:23:35.440Z,17.80
2018-07-19T21:26:11.230Z,17.80
2018-07-19T21:28:46.710Z,17.80
2018-07-19T21:31:21.995Z,17.60
2018-07-19T21:33:57.631Z,17.60
2018-07-19T21:36:32.999Z,17.50
2018-07-19T21:39:11.714Z,17.40
2018-07-19T21:44:22.578Z,17.30
2018-07-19T21:46:57.943Z,17.40
2018-07-19T21:49:33.387Z,17.30
2018-07-19T21:52:08.943Z,17.20
2018-07-19T21:54:44.800Z,17.20
2018-07-19T21:57:20.094Z,17.10
2018-07-19T21:59:55.584Z,17.00
2018-07-19T22:02:31.086Z,16.90
2018-07-19T22:05:07.062Z,16.90
2018-07-19T22:07:42.437Z,16.90
2018-07-19T22:10:18.201Z,16.80
2018-07-19T22:12:53.900Z,16.80
2018-07-19T22:15:30.113Z,16.80
2018-07-19T22:18:06.160Z,16.60
2018-07-19T22:20:42.030Z,16.60
2018-07-19T22:23:17.420Z,16.60
2018-07-19T22:25:52.932Z,16.80
2018-07-19T22:28:28.414Z,16.70
2018-07-19T22:31:04.016Z,16.70
2018-07-19T22:33:39.458Z,16.80
2018-07-19T22:36:15.317Z,16.90
2018-07-19T22:38:50.936Z,16.90
2018-07-19T22:41:26.613Z,16.80
2018-07-19T22:44:02.044Z,16.80
2018-07-19T22:49:13.018Z,16.80
2018-07-19T22:51:48.804Z,16.80
2018-07-19T22:54:24.396Z,16.80
2018-07-19T22:57:00.076Z,16.70
2018-07-19T22:59:42.269Z,16.70
2018-07-19T23:02:17.801Z,16.60
2018-07-19T23:04:53.301Z,16.60
2018-07-19T23:07:29.216Z,16.50
2018-07-19T23:10:05.153Z,16.50
2018-07-19T23:12:40.769Z,16.40
2018-07-19T23:15:16.086Z,16.50
2018-07-19T23:17:52.064Z,16.50
2018-07-19T23:20:27.599Z,16.40
2018-07-19T23:23:03.367Z,16.40
2018-07-19T23:25:38.777Z,16.30
2018-07-19T23:28:14.371Z,16.30
2018-07-19T23:30:49.797Z,16.20
2018-07-19T23:33:25.685Z,16.20
2018-07-19T23:38:52.018Z,16.20
2018-07-19T23:41:32.184Z,16.20
2018-07-19T23:44:12.975Z,16.00
2018-07-19T23:46:53.509Z,16.00
2018-07-19T23:49:29.245Z,15.90
2018-07-19T23:52:04.881Z,15.90
2018-07-19T23:54:40.657Z,15.80
2018-07-19T23:57:16.250Z,15.80
2018-07-19T23:59:51.952Z,15.80
